sensor_id;sensor_type;location;lat;lon;timestamp;temperature;humidity
40702;DHT22;26387;50.114;8.662;2022-12-01T00:02:06;8.90;98.10
40702;DHT22;26387;50.114;8.662;2022-12-01T00:04:32;8.80;98.20
40702;DHT22;26387;50.114;8.662;2022-12-01T00:06:57;8.70;98.20
40702;DHT22;26387;50.114;8.662;2022-12-01T00:09:22;8.70;98.40
40702;DHT22;26387;50.114;8.662;2022-12-01T00:12:06;8.70;98.60
40702;DHT22;26387;50.114;8.662;2022-12-01T00:14:32;8.70;98.70
40702;DHT22;26387;50.114;8.662;2022-12-01T00:16:57;8.70;98.50
40702;DHT22;26387;50.114;8.662;2022-12-01T00:19:23;8.60;98.90
40702;DHT22;26387;50.114;8.662;2022-12-01T00:21:49;8.60;98.80
40702;DHT22;26387;50.114;8.662;2022-12-01T00:24:14;8.60;98.80
40702;DHT22;26387;50.114;8.662;2022-12-01T00:26:40;8.50;98.80
40702;DHT22;26387;50.114;8.662;2022-12-01T00:29:05;8.60;98.80
40702;DHT22;26387;50.114;8.662;2022-12-01T00:31:31;8.50;98.80
40702;DHT22;26387;50.114;8.662;2022-12-01T00:33:56;8.50;99.10
40702;DHT22;26387;50.114;8.662;2022-12-01T00:36:22;8.60;99.00
40702;DHT22;26387;50.114;8.662;2022-12-01T00:38:50;8.70;99.00
40702;DHT22;26387;50.114;8.662;2022-12-01T00:41:15;8.70;98.80
40702;DHT22;26387;50.114;8.662;2022-12-01T00:43:41;8.60;98.30
40702;DHT22;26387;50.114;8.662;2022-12-01T00:46:07;8.60;98.60
40702;DHT22;26387;50.114;8.662;2022-12-01T00:48:32;8.50;98.70
40702;DHT22;26387;50.114;8.662;2022-12-01T00:50:58;8.50;98.70
40702;DHT22;26387;50.114;8.662;2022-12-01T00:53:23;8.50;98.80
40702;DHT22;26387;50.114;8.662;2022-12-01T00:55:49;8.50;98.80
40702;DHT22;26387;50.114;8.662;2022-12-01T00:58:14;8.50;98.50
40702;DHT22;26387;50.114;8.662;2022-12-01T01:00:40;8.40;98.50
40702;DHT22;26387;50.114;8.662;2022-12-01T01:03:07;8.40;98.70
40702;DHT22;26387;50.114;8.662;2022-12-01T01:05:39;8.40;98.60
40702;DHT22;26387;50.114;8.662;2022-12-01T01:08:06;8.50;98.40
40702;DHT22;26387;50.114;8.662;2022-12-01T01:10:41;8.50;98.30
40702;DHT22;26387;50.114;8.662;2022-12-01T01:13:07;8.50;98.10
40702;DHT22;26387;50.114;8.662;2022-12-01T01:15:32;8.50;98.30
40702;DHT22;26387;50.114;8.662;2022-12-01T01:17:58;8.50;98.10
40702;DHT22;26387;50.114;8.662;2022-12-01T01:20:23;8.50;98.00
40702;DHT22;26387;50.114;8.662;2022-12-01T01:22:49;8.60;98.30
40702;DHT22;26387;50.114;8.662;2022-12-01T01:25:14;8.60;98.20
40702;DHT22;26387;50.114;8.662;2022-12-01T01:27:40;8.60;98.10
40702;DHT22;26387;50.114;8.662;2022-12-01T01:30:05;8.60;98.10
40702;DHT22;26387;50.114;8.662;2022-12-01T01:32:31;8.60;98.20
40702;DHT22;26387;50.114;8.662;2022-12-01T01:34:56;8.60;98.00
40702;DHT22;26387;50.114;8.662;2022-12-01T01:37:22;8.50;98.00
40702;DHT22;26387;50.114;8.662;2022-12-01T01:39:47;8.70;98.00
40702;DHT22;26387;50.114;8.662;2022-12-01T01:42:13;8.70;98.10
40702;DHT22;26387;50.114;8.662;2022-12-01T01:44:48;8.80;97.90
40702;DHT22;26387;50.114;8.662;2022-12-01T01:47:29;8.90;97.70
40702;DHT22;26387;50.114;8.662;2022-12-01T01:49:57;9.00;97.30
40702;DHT22;26387;50.114;8.662;2022-12-01T01:52:24;9.00;97.70
40702;DHT22;26387;50.114;8.662;2022-12-01T01:54:52;9.10;97.40
40702;DHT22;26387;50.114;8.662;2022-12-01T01:57:19;9.00;97.20
40702;DHT22;26387;50.114;8.662;2022-12-01T01:59:47;9.00;97.10
40702;DHT22;26387;50.114;8.662;2022-12-01T02:02:14;9.10;97.20
40702;DHT22;26387;50.114;8.662;2022-12-01T02:04:40;9.10;97.00
40702;DHT22;26387;50.114;8.662;2022-12-01T02:07:06;9.30;97.00
40702;DHT22;26387;50.114;8.662;2022-12-01T02:09:32;9.30;96.60
40702;DHT22;26387;50.114;8.662;2022-12-01T02:14:48;9.30;96.40
40702;DHT22;26387;50.114;8.662;2022-12-01T02:35:21;9.20;95.80
40702;DHT22;26387;50.114;8.662;2022-12-01T02:37:55;9.00;96.00
40702;DHT22;26387;50.114;8.662;2022-12-01T02:40:25;9.00;96.00
40702;DHT22;26387;50.114;8.662;2022-12-01T02:45:42;9.20;95.90
40702;DHT22;26387;50.114;8.662;2022-12-01T02:48:10;9.10;95.60
40702;DHT22;26387;50.114;8.662;2022-12-01T02:50:38;9.10;95.90
40702;DHT22;26387;50.114;8.662;2022-12-01T02:53:05;9.00;95.80
40702;DHT22;26387;50.114;8.662;2022-12-01T02:55:32;9.00;95.60
40702;DHT22;26387;50.114;8.662;2022-12-01T02:57:57;9.10;95.60
40702;DHT22;26387;50.114;8.662;2022-12-01T03:00:22;9.10;95.70
40702;DHT22;26387;50.114;8.662;2022-12-01T03:02:53;9.10;95.50
40702;DHT22;26387;50.114;8.662;2022-12-01T03:05:37;9.20;95.60
40702;DHT22;26387;50.114;8.662;2022-12-01T03:10:51;9.30;95.30
40702;DHT22;26387;50.114;8.662;2022-12-01T03:21:32;8.90;95.30
40702;DHT22;26387;50.114;8.662;2022-12-01T03:24:00;8.80;95.30
40702;DHT22;26387;50.114;8.662;2022-12-01T03:26:28;8.60;95.50
40702;DHT22;26387;50.114;8.662;2022-12-01T03:28:55;8.60;95.40
40702;DHT22;26387;50.114;8.662;2022-12-01T03:31:28;8.60;95.90
40702;DHT22;26387;50.114;8.662;2022-12-01T03:33:56;8.70;95.80
40702;DHT22;26387;50.114;8.662;2022-12-01T03:36:27;8.90;95.70
40702;DHT22;26387;50.114;8.662;2022-12-01T03:38:54;8.90;95.60
40702;DHT22;26387;50.114;8.662;2022-12-01T03:41:24;9.00;95.50
40702;DHT22;26387;50.114;8.662;2022-12-01T03:43:52;8.90;95.10
40702;DHT22;26387;50.114;8.662;2022-12-01T03:46:23;8.90;95.20
40702;DHT22;26387;50.114;8.662;2022-12-01T03:48:52;8.90;95.40
40702;DHT22;26387;50.114;8.662;2022-12-01T03:51:39;8.80;95.20
40702;DHT22;26387;50.114;8.662;2022-12-01T03:54:14;8.80;95.50
40702;DHT22;26387;50.114;8.662;2022-12-01T03:56:43;8.80;95.50
40702;DHT22;26387;50.114;8.662;2022-12-01T03:59:10;8.80;95.50
40702;DHT22;26387;50.114;8.662;2022-12-01T04:01:36;8.80;95.70
40702;DHT22;26387;50.114;8.662;2022-12-01T04:04:05;8.80;95.60
40702;DHT22;26387;50.114;8.662;2022-12-01T04:06:31;8.90;95.70
40702;DHT22;26387;50.114;8.662;2022-12-01T04:08:57;8.90;95.20
40702;DHT22;26387;50.114;8.662;2022-12-01T04:11:22;8.90;95.30
40702;DHT22;26387;50.114;8.662;2022-12-01T04:14:06;8.80;95.50
40702;DHT22;26387;50.114;8.662;2022-12-01T04:16:32;8.90;95.00
40702;DHT22;26387;50.114;8.662;2022-12-01T04:18:57;8.80;95.30
40702;DHT22;26387;50.114;8.662;2022-12-01T04:21:23;8.90;95.30
40702;DHT22;26387;50.114;8.662;2022-12-01T04:23:48;9.00;94.90
40702;DHT22;26387;50.114;8.662;2022-12-01T04:26:27;9.00;94.80
40702;DHT22;26387;50.114;8.662;2022-12-01T04:28:52;9.10;94.80
40702;DHT22;26387;50.114;8.662;2022-12-01T04:31:17;9.20;94.50
40702;DHT22;26387;50.114;8.662;2022-12-01T04:33:43;9.20;94.70
40702;DHT22;26387;50.114;8.662;2022-12-01T04:36:08;9.10;95.00
40702;DHT22;26387;50.114;8.662;2022-12-01T04:38:34;9.10;94.90
40702;DHT22;26387;50.114;8.662;2022-12-01T04:41:06;9.10;94.60
40702;DHT22;26387;50.114;8.662;2022-12-01T04:43:32;9.00;94.90
40702;DHT22;26387;50.114;8.662;2022-12-01T04:45:57;9.10;94.50
40702;DHT22;26387;50.114;8.662;2022-12-01T04:48:23;9.10;94.60
40702;DHT22;26387;50.114;8.662;2022-12-01T04:50:48;9.20;94.40
40702;DHT22;26387;50.114;8.662;2022-12-01T04:53:14;9.20;94.20
40702;DHT22;26387;50.114;8.662;2022-12-01T04:55:39;9.20;94.10
40702;DHT22;26387;50.114;8.662;2022-12-01T04:58:05;9.20;94.00
40702;DHT22;26387;50.114;8.662;2022-12-01T05:00:30;9.20;94.10
40702;DHT22;26387;50.114;8.662;2022-12-01T05:02:56;9.30;94.20
40702;DHT22;26387;50.114;8.662;2022-12-01T05:05:22;9.20;93.80
40702;DHT22;26387;50.114;8.662;2022-12-01T05:07:47;9.20;94.00
40702;DHT22;26387;50.114;8.662;2022-12-01T05:10:12;9.30;94.10
40702;DHT22;26387;50.114;8.662;2022-12-01T05:12:38;9.20;94.20
40702;DHT22;26387;50.114;8.662;2022-12-01T05:15:06;9.20;94.40
40702;DHT22;26387;50.114;8.662;2022-12-01T05:17:31;9.20;94.30
40702;DHT22;26387;50.114;8.662;2022-12-01T05:19:57;9.20;94.30
40702;DHT22;26387;50.114;8.662;2022-12-01T05:22:41;9.20;94.10
40702;DHT22;26387;50.114;8.662;2022-12-01T05:25:06;9.20;94.00
40702;DHT22;26387;50.114;8.662;2022-12-01T05:27:32;9.10;94.20
40702;DHT22;26387;50.114;8.662;2022-12-01T05:29:57;9.20;94.00
40702;DHT22;26387;50.114;8.662;2022-12-01T05:32:23;9.30;93.70
40702;DHT22;26387;50.114;8.662;2022-12-01T05:34:48;9.30;93.60
40702;DHT22;26387;50.114;8.662;2022-12-01T05:37:13;9.20;93.80
40702;DHT22;26387;50.114;8.662;2022-12-01T05:39:39;9.10;93.80
40702;DHT22;26387;50.114;8.662;2022-12-01T05:42:04;9.20;93.70
40702;DHT22;26387;50.114;8.662;2022-12-01T05:44:30;9.00;93.60
40702;DHT22;26387;50.114;8.662;2022-12-01T05:46:55;9.00;94.10
40702;DHT22;26387;50.114;8.662;2022-12-01T05:49:21;9.10;93.90
40702;DHT22;26387;50.114;8.662;2022-12-01T05:51:46;9.10;93.90
40702;DHT22;26387;50.114;8.662;2022-12-01T05:54:12;9.10;94.00
40702;DHT22;26387;50.114;8.662;2022-12-01T05:56:37;9.00;94.10
40702;DHT22;26387;50.114;8.662;2022-12-01T05:59:02;9.00;94.30
40702;DHT22;26387;50.114;8.662;2022-12-01T06:01:28;9.00;94.30
40702;DHT22;26387;50.114;8.662;2022-12-01T06:03:53;9.10;94.10
40702;DHT22;26387;50.114;8.662;2022-12-01T06:06:19;9.10;94.00
40702;DHT22;26387;50.114;8.662;2022-12-01T06:08:44;9.20;94.20
40702;DHT22;26387;50.114;8.662;2022-12-01T06:11:10;9.20;94.20
40702;DHT22;26387;50.114;8.662;2022-12-01T06:13:35;9.20;93.80
40702;DHT22;26387;50.114;8.662;2022-12-01T06:16:02;9.20;93.80
40702;DHT22;26387;50.114;8.662;2022-12-01T06:18:32;9.20;93.90
40702;DHT22;26387;50.114;8.662;2022-12-01T06:20:58;9.20;93.60
40702;DHT22;26387;50.114;8.662;2022-12-01T06:23:23;9.30;93.60
40702;DHT22;26387;50.114;8.662;2022-12-01T06:25:48;9.30;93.50
40702;DHT22;26387;50.114;8.662;2022-12-01T06:28:14;9.30;93.80
40702;DHT22;26387;50.114;8.662;2022-12-01T06:30:40;9.30;93.50
40702;DHT22;26387;50.114;8.662;2022-12-01T06:33:05;9.30;93.30
40702;DHT22;26387;50.114;8.662;2022-12-01T06:35:31;9.20;93.80
40702;DHT22;26387;50.114;8.662;2022-12-01T06:37:56;9.20;93.90
40702;DHT22;26387;50.114;8.662;2022-12-01T06:40:22;9.10;93.90
40702;DHT22;26387;50.114;8.662;2022-12-01T06:42:47;9.20;93.70
40702;DHT22;26387;50.114;8.662;2022-12-01T06:45:13;9.30;94.00
40702;DHT22;26387;50.114;8.662;2022-12-01T06:47:38;9.20;93.60
40702;DHT22;26387;50.114;8.662;2022-12-01T06:50:04;9.20;93.80
40702;DHT22;26387;50.114;8.662;2022-12-01T06:52:33;9.20;93.40
40702;DHT22;26387;50.114;8.662;2022-12-01T06:54:58;9.20;93.80
40702;DHT22;26387;50.114;8.662;2022-12-01T06:57:24;9.20;93.70
40702;DHT22;26387;50.114;8.662;2022-12-01T06:59:50;9.20;93.60
40702;DHT22;26387;50.114;8.662;2022-12-01T07:02:15;9.20;93.80
40702;DHT22;26387;50.114;8.662;2022-12-01T07:04:41;9.10;93.60
40702;DHT22;26387;50.114;8.662;2022-12-01T07:07:06;9.00;93.50
40702;DHT22;26387;50.114;8.662;2022-12-01T07:09:32;9.00;93.70
40702;DHT22;26387;50.114;8.662;2022-12-01T07:11:58;9.00;93.90
40702;DHT22;26387;50.114;8.662;2022-12-01T07:14:24;9.00;94.00
40702;DHT22;26387;50.114;8.662;2022-12-01T07:16:50;8.90;93.40
40702;DHT22;26387;50.114;8.662;2022-12-01T07:19:16;8.90;93.30
40702;DHT22;26387;50.114;8.662;2022-12-01T07:21:41;8.80;93.50
40702;DHT22;26387;50.114;8.662;2022-12-01T07:24:07;8.90;93.20
40702;DHT22;26387;50.114;8.662;2022-12-01T07:26:33;8.90;93.10
40702;DHT22;26387;50.114;8.662;2022-12-01T07:28:58;8.80;93.20
40702;DHT22;26387;50.114;8.662;2022-12-01T07:31:24;8.70;93.20
40702;DHT22;26387;50.114;8.662;2022-12-01T07:33:50;8.70;93.30
40702;DHT22;26387;50.114;8.662;2022-12-01T07:36:15;8.70;93.40
40702;DHT22;26387;50.114;8.662;2022-12-01T07:38:41;8.80;93.00
40702;DHT22;26387;50.114;8.662;2022-12-01T07:41:10;8.80;92.70
40702;DHT22;26387;50.114;8.662;2022-12-01T07:43:36;8.70;92.90
40702;DHT22;26387;50.114;8.662;2022-12-01T07:46:09;8.70;92.70
40702;DHT22;26387;50.114;8.662;2022-12-01T07:48:36;8.80;92.50
40702;DHT22;26387;50.114;8.662;2022-12-01T07:51:02;8.80;92.10
40702;DHT22;26387;50.114;8.662;2022-12-01T07:53:28;8.80;92.30
40702;DHT22;26387;50.114;8.662;2022-12-01T07:55:54;8.70;92.00
40702;DHT22;26387;50.114;8.662;2022-12-01T07:58:19;8.60;92.20
40702;DHT22;26387;50.114;8.662;2022-12-01T08:00:45;8.70;92.50
40702;DHT22;26387;50.114;8.662;2022-12-01T08:03:10;8.70;91.90
40702;DHT22;26387;50.114;8.662;2022-12-01T08:05:36;8.60;91.90
40702;DHT22;26387;50.114;8.662;2022-12-01T08:08:01;8.70;91.80
40702;DHT22;26387;50.114;8.662;2022-12-01T08:10:27;8.70;91.90
40702;DHT22;26387;50.114;8.662;2022-12-01T08:12:52;8.70;91.60
40702;DHT22;26387;50.114;8.662;2022-12-01T08:15:18;8.60;91.90
40702;DHT22;26387;50.114;8.662;2022-12-01T08:17:43;8.60;91.90
40702;DHT22;26387;50.114;8.662;2022-12-01T08:20:09;8.60;91.70
40702;DHT22;26387;50.114;8.662;2022-12-01T08:22:34;8.80;91.70
40702;DHT22;26387;50.114;8.662;2022-12-01T08:25:00;8.80;91.10
40702;DHT22;26387;50.114;8.662;2022-12-01T08:27:25;8.70;91.20
40702;DHT22;26387;50.114;8.662;2022-12-01T08:29:51;8.70;91.20
40702;DHT22;26387;50.114;8.662;2022-12-01T08:32:16;8.60;91.30
40702;DHT22;26387;50.114;8.662;2022-12-01T08:34:42;8.50;91.50
40702;DHT22;26387;50.114;8.662;2022-12-01T08:37:07;8.60;91.70
40702;DHT22;26387;50.114;8.662;2022-12-01T08:39:33;8.70;91.30
40702;DHT22;26387;50.114;8.662;2022-12-01T08:41:58;8.80;91.10
40702;DHT22;26387;50.114;8.662;2022-12-01T08:44:24;8.80;90.70
40702;DHT22;26387;50.114;8.662;2022-12-01T08:46:50;8.90;90.40
40702;DHT22;26387;50.114;8.662;2022-12-01T08:49:15;8.80;90.70
40702;DHT22;26387;50.114;8.662;2022-12-01T08:51:41;8.90;91.30
40702;DHT22;26387;50.114;8.662;2022-12-01T08:54:06;8.90;90.70
40702;DHT22;26387;50.114;8.662;2022-12-01T08:56:37;8.90;90.70
40702;DHT22;26387;50.114;8.662;2022-12-01T08:59:03;8.90;91.10
40702;DHT22;26387;50.114;8.662;2022-12-01T09:01:29;8.90;91.40
40702;DHT22;26387;50.114;8.662;2022-12-01T09:03:55;9.00;91.10
40702;DHT22;26387;50.114;8.662;2022-12-01T09:06:39;9.00;90.90
40702;DHT22;26387;50.114;8.662;2022-12-01T09:09:05;9.00;90.70
40702;DHT22;26387;50.114;8.662;2022-12-01T09:11:31;9.00;91.20
40702;DHT22;26387;50.114;8.662;2022-12-01T09:13:57;9.10;90.70
40702;DHT22;26387;50.114;8.662;2022-12-01T09:16:23;9.20;90.50
40702;DHT22;26387;50.114;8.662;2022-12-01T09:18:48;9.30;90.60
40702;DHT22;26387;50.114;8.662;2022-12-01T09:21:21;9.50;90.10
40702;DHT22;26387;50.114;8.662;2022-12-01T09:23:46;9.50;89.50
40702;DHT22;26387;50.114;8.662;2022-12-01T09:26:12;9.60;90.10
40702;DHT22;26387;50.114;8.662;2022-12-01T09:28:42;9.60;89.20
40702;DHT22;26387;50.114;8.662;2022-12-01T09:31:08;9.60;89.50
40702;DHT22;26387;50.114;8.662;2022-12-01T09:33:34;9.70;89.20
40702;DHT22;26387;50.114;8.662;2022-12-01T09:36:00;9.70;89.10
40702;DHT22;26387;50.114;8.662;2022-12-01T09:38:29;9.80;89.00
40702;DHT22;26387;50.114;8.662;2022-12-01T09:40:55;9.80;88.70
40702;DHT22;26387;50.114;8.662;2022-12-01T09:43:23;9.90;88.50
40702;DHT22;26387;50.114;8.662;2022-12-01T09:45:56;9.80;89.10
40702;DHT22;26387;50.114;8.662;2022-12-01T09:48:26;9.80;88.50
40702;DHT22;26387;50.114;8.662;2022-12-01T09:50:53;9.70;88.80
40702;DHT22;26387;50.114;8.662;2022-12-01T09:53:20;9.60;89.80
40702;DHT22;26387;50.114;8.662;2022-12-01T09:55:47;9.50;89.60
40702;DHT22;26387;50.114;8.662;2022-12-01T09:58:14;9.50;89.90
40702;DHT22;26387;50.114;8.662;2022-12-01T10:00:42;9.60;90.00
40702;DHT22;26387;50.114;8.662;2022-12-01T10:05:44;9.60;89.10
40702;DHT22;26387;50.114;8.662;2022-12-01T10:08:12;9.70;89.30
40702;DHT22;26387;50.114;8.662;2022-12-01T10:10:39;9.70;89.60
40702;DHT22;26387;50.114;8.662;2022-12-01T10:15:46;9.70;88.80
40702;DHT22;26387;50.114;8.662;2022-12-01T10:18:18;9.70;89.70
40702;DHT22;26387;50.114;8.662;2022-12-01T10:20:47;9.70;89.20
40702;DHT22;26387;50.114;8.662;2022-12-01T10:26:02;9.50;90.10
40702;DHT22;26387;50.114;8.662;2022-12-01T10:31:03;9.60;89.40
40702;DHT22;26387;50.114;8.662;2022-12-01T10:33:33;9.60;89.10
40702;DHT22;26387;50.114;8.662;2022-12-01T10:35:59;9.60;89.40
40702;DHT22;26387;50.114;8.662;2022-12-01T10:38:29;9.70;89.70
40702;DHT22;26387;50.114;8.662;2022-12-01T10:40:55;9.90;89.00
40702;DHT22;26387;50.114;8.662;2022-12-01T10:43:28;10.10;87.50
40702;DHT22;26387;50.114;8.662;2022-12-01T10:45:55;10.30;87.60
40702;DHT22;26387;50.114;8.662;2022-12-01T10:48:22;10.30;86.60
40702;DHT22;26387;50.114;8.662;2022-12-01T10:50:51;10.30;86.70
40702;DHT22;26387;50.114;8.662;2022-12-01T10:55:49;10.40;87.70
40702;DHT22;26387;50.114;8.662;2022-12-01T10:58:16;10.50;86.90
40702;DHT22;26387;50.114;8.662;2022-12-01T11:00:42;10.50;86.70
40702;DHT22;26387;50.114;8.662;2022-12-01T11:03:24;10.50;86.80
40702;DHT22;26387;50.114;8.662;2022-12-01T11:05:52;10.60;86.70
40702;DHT22;26387;50.114;8.662;2022-12-01T11:08:23;10.60;86.60
40702;DHT22;26387;50.114;8.662;2022-12-01T11:10:49;10.50;86.10
40702;DHT22;26387;50.114;8.662;2022-12-01T11:15:53;10.40;86.50
40702;DHT22;26387;50.114;8.662;2022-12-01T11:18:20;10.40;87.00
40702;DHT22;26387;50.114;8.662;2022-12-01T11:20:46;10.40;86.90
40702;DHT22;26387;50.114;8.662;2022-12-01T11:25:59;10.50;87.20
40702;DHT22;26387;50.114;8.662;2022-12-01T11:28:25;10.50;87.50
40702;DHT22;26387;50.114;8.662;2022-12-01T11:30:54;10.50;86.70
40702;DHT22;26387;50.114;8.662;2022-12-01T11:33:20;10.50;86.50
40702;DHT22;26387;50.114;8.662;2022-12-01T11:35:46;10.50;86.50
40702;DHT22;26387;50.114;8.662;2022-12-01T11:38:17;10.40;86.40
40702;DHT22;26387;50.114;8.662;2022-12-01T11:43:17;10.50;86.50
40702;DHT22;26387;50.114;8.662;2022-12-01T11:45:45;10.60;85.60
40702;DHT22;26387;50.114;8.662;2022-12-01T11:50:38;10.70;85.50
40702;DHT22;26387;50.114;8.662;2022-12-01T11:53:23;10.60;85.30
40702;DHT22;26387;50.114;8.662;2022-12-01T11:55:49;10.60;85.00
40702;DHT22;26387;50.114;8.662;2022-12-01T11:58:15;10.60;85.20
40702;DHT22;26387;50.114;8.662;2022-12-01T12:00:51;10.60;85.40
40702;DHT22;26387;50.114;8.662;2022-12-01T12:03:29;10.60;84.70
40702;DHT22;26387;50.114;8.662;2022-12-01T12:06:01;10.50;85.40
40702;DHT22;26387;50.114;8.662;2022-12-01T12:31:18;10.50;85.70
40702;DHT22;26387;50.114;8.662;2022-12-01T12:33:53;10.40;85.90
40702;DHT22;26387;50.114;8.662;2022-12-01T12:46:22;10.70;84.50
40702;DHT22;26387;50.114;8.662;2022-12-01T12:48:58;10.80;84.90
40702;DHT22;26387;50.114;8.662;2022-12-01T12:54:20;10.90;84.50
40702;DHT22;26387;50.114;8.662;2022-12-01T12:56:44;10.90;84.80
40702;DHT22;26387;50.114;8.662;2022-12-01T12:59:21;11.10;83.90
40702;DHT22;26387;50.114;8.662;2022-12-01T13:01:59;11.20;83.90
40702;DHT22;26387;50.114;8.662;2022-12-01T13:04:44;11.20;83.40
40702;DHT22;26387;50.114;8.662;2022-12-01T13:07:24;11.30;83.20
40702;DHT22;26387;50.114;8.662;2022-12-01T13:09:54;11.40;83.20
40702;DHT22;26387;50.114;8.662;2022-12-01T13:12:30;11.40;82.40
40702;DHT22;26387;50.114;8.662;2022-12-01T13:15:16;11.40;81.50
40702;DHT22;26387;50.114;8.662;2022-12-01T13:17:43;11.50;81.80
40702;DHT22;26387;50.114;8.662;2022-12-01T13:20:12;11.90;81.60
40702;DHT22;26387;50.114;8.662;2022-12-01T13:22:38;12.20;80.70
40702;DHT22;26387;50.114;8.662;2022-12-01T13:25:04;12.30;79.90
40702;DHT22;26387;50.114;8.662;2022-12-01T13:27:39;12.50;79.80
40702;DHT22;26387;50.114;8.662;2022-12-01T13:30:14;12.40;79.40
40702;DHT22;26387;50.114;8.662;2022-12-01T13:32:40;12.40;79.40
40702;DHT22;26387;50.114;8.662;2022-12-01T13:37:41;12.10;80.10
40702;DHT22;26387;50.114;8.662;2022-12-01T13:42:51;11.70;80.90
40702;DHT22;26387;50.114;8.662;2022-12-01T13:45:18;11.50;81.20
40702;DHT22;26387;50.114;8.662;2022-12-01T13:47:51;11.40;81.20
40702;DHT22;26387;50.114;8.662;2022-12-01T14:03:50;11.00;83.90
40702;DHT22;26387;50.114;8.662;2022-12-01T14:06:27;10.80;84.50
40702;DHT22;26387;50.114;8.662;2022-12-01T14:08:57;10.80;84.80
40702;DHT22;26387;50.114;8.662;2022-12-01T14:11:25;10.60;85.40
40702;DHT22;26387;50.114;8.662;2022-12-01T14:16:16;10.60;85.60
40702;DHT22;26387;50.114;8.662;2022-12-01T14:18:43;10.50;85.80
40702;DHT22;26387;50.114;8.662;2022-12-01T14:21:13;10.50;86.40
40702;DHT22;26387;50.114;8.662;2022-12-01T14:23:57;10.40;86.60
40702;DHT22;26387;50.114;8.662;2022-12-01T14:26:23;10.40;86.90
40702;DHT22;26387;50.114;8.662;2022-12-01T14:31:25;10.30;86.70
40702;DHT22;26387;50.114;8.662;2022-12-01T14:36:48;10.10;87.10
40702;DHT22;26387;50.114;8.662;2022-12-01T14:39:17;10.00;87.20
40702;DHT22;26387;50.114;8.662;2022-12-01T14:41:47;9.80;87.80
40702;DHT22;26387;50.114;8.662;2022-12-01T14:47:35;9.70;88.70
40702;DHT22;26387;50.114;8.662;2022-12-01T14:52:16;9.70;89.50
40702;DHT22;26387;50.114;8.662;2022-12-01T14:54:45;9.70;89.40
40702;DHT22;26387;50.114;8.662;2022-12-01T14:57:11;9.70;89.40
40702;DHT22;26387;50.114;8.662;2022-12-01T14:59:38;9.60;89.70
40702;DHT22;26387;50.114;8.662;2022-12-01T15:02:04;9.60;90.10
40702;DHT22;26387;50.114;8.662;2022-12-01T15:04:34;9.60;90.10
40702;DHT22;26387;50.114;8.662;2022-12-01T15:07:00;9.60;90.20
40702;DHT22;26387;50.114;8.662;2022-12-01T15:09:25;9.60;90.20
40702;DHT22;26387;50.114;8.662;2022-12-01T15:11:55;9.50;90.20
40702;DHT22;26387;50.114;8.662;2022-12-01T15:14:27;9.50;90.30
40702;DHT22;26387;50.114;8.662;2022-12-01T15:16:53;9.50;90.30
40702;DHT22;26387;50.114;8.662;2022-12-01T15:19:23;9.50;90.30
40702;DHT22;26387;50.114;8.662;2022-12-01T15:21:50;9.50;90.40
40702;DHT22;26387;50.114;8.662;2022-12-01T15:26:45;9.50;90.30
40702;DHT22;26387;50.114;8.662;2022-12-01T15:29:26;9.40;90.20
40702;DHT22;26387;50.114;8.662;2022-12-01T15:31:53;9.30;90.40
40702;DHT22;26387;50.114;8.662;2022-12-01T15:34:23;9.30;90.50
40702;DHT22;26387;50.114;8.662;2022-12-01T15:36:50;9.30;90.80
40702;DHT22;26387;50.114;8.662;2022-12-01T15:49:07;9.30;90.60
40702;DHT22;26387;50.114;8.662;2022-12-01T15:51:33;9.20;90.80
40702;DHT22;26387;50.114;8.662;2022-12-01T15:53:59;9.20;90.80
40702;DHT22;26387;50.114;8.662;2022-12-01T15:58:51;9.20;90.80
40702;DHT22;26387;50.114;8.662;2022-12-01T16:01:17;9.20;90.80
40702;DHT22;26387;50.114;8.662;2022-12-01T16:03:50;9.20;90.80
40702;DHT22;26387;50.114;8.662;2022-12-01T16:08:51;9.10;90.80
40702;DHT22;26387;50.114;8.662;2022-12-01T16:11:17;9.10;90.90
40702;DHT22;26387;50.114;8.662;2022-12-01T16:13:44;9.00;90.90
40702;DHT22;26387;50.114;8.662;2022-12-01T16:18:54;9.00;91.00
40702;DHT22;26387;50.114;8.662;2022-12-01T16:21:20;8.90;91.00
40702;DHT22;26387;50.114;8.662;2022-12-01T16:23:45;8.90;91.10
40702;DHT22;26387;50.114;8.662;2022-12-01T16:26:11;8.90;91.10
40702;DHT22;26387;50.114;8.662;2022-12-01T16:28:38;8.90;91.00
40702;DHT22;26387;50.114;8.662;2022-12-01T16:31:04;8.90;91.00
40702;DHT22;26387;50.114;8.662;2022-12-01T16:33:36;9.00;91.00
40702;DHT22;26387;50.114;8.662;2022-12-01T16:36:02;9.00;91.00
40702;DHT22;26387;50.114;8.662;2022-12-01T16:38:28;9.00;90.90
40702;DHT22;26387;50.114;8.662;2022-12-01T16:40:55;9.00;90.90
40702;DHT22;26387;50.114;8.662;2022-12-01T16:43:23;8.90;91.00
40702;DHT22;26387;50.114;8.662;2022-12-01T16:45:49;8.90;90.90
40702;DHT22;26387;50.114;8.662;2022-12-01T16:48:17;8.90;91.00
40702;DHT22;26387;50.114;8.662;2022-12-01T16:50:47;8.90;90.90
40702;DHT22;26387;50.114;8.662;2022-12-01T16:53:13;8.90;90.90
40702;DHT22;26387;50.114;8.662;2022-12-01T16:55:45;8.90;91.00
40702;DHT22;26387;50.114;8.662;2022-12-01T16:58:11;8.90;91.10
40702;DHT22;26387;50.114;8.662;2022-12-01T17:00:36;8.90;91.10
40702;DHT22;26387;50.114;8.662;2022-12-01T17:03:02;8.90;91.00
40702;DHT22;26387;50.114;8.662;2022-12-01T17:05:27;8.90;91.20
40702;DHT22;26387;50.114;8.662;2022-12-01T17:07:53;8.80;91.10
40702;DHT22;26387;50.114;8.662;2022-12-01T17:10:18;8.90;91.20
40702;DHT22;26387;50.114;8.662;2022-12-01T17:12:44;8.80;91.30
40702;DHT22;26387;50.114;8.662;2022-12-01T17:15:09;8.80;91.20
40702;DHT22;26387;50.114;8.662;2022-12-01T17:17:35;8.80;91.40
40702;DHT22;26387;50.114;8.662;2022-12-01T17:20:01;8.90;91.10
40702;DHT22;26387;50.114;8.662;2022-12-01T17:22:26;8.80;91.10
40702;DHT22;26387;50.114;8.662;2022-12-01T17:24:52;8.80;91.20
40702;DHT22;26387;50.114;8.662;2022-12-01T17:27:20;8.80;91.30
40702;DHT22;26387;50.114;8.662;2022-12-01T17:29:45;8.80;91.20
40702;DHT22;26387;50.114;8.662;2022-12-01T17:32:11;8.80;91.20
40702;DHT22;26387;50.114;8.662;2022-12-01T17:34:38;8.80;91.30
40702;DHT22;26387;50.114;8.662;2022-12-01T17:37:03;8.70;91.30
